createdAt,value
2023-04-21T00:00:27.092Z,66.04
2023-04-21T00:02:56.985Z,65.91
2023-04-21T00:05:26.022Z,65.89
2023-04-21T00:07:54.397Z,65.94
2023-04-21T00:10:23.009Z,66.17
2023-04-21T00:12:51.384Z,65.39
2023-04-21T00:15:19.852Z,65.34
2023-04-21T00:17:48.343Z,65.77
2023-04-21T00:20:18.196Z,65.39
2023-04-21T00:22:46.577Z,65.30
2023-04-21T00:25:15.557Z,65.57
2023-04-21T00:27:43.902Z,65.41
2023-04-21T00:30:16.029Z,65.42
2023-04-21T00:32:44.534Z,65.77
2023-04-21T00:35:13.038Z,65.29
2023-04-21T00:37:42.816Z,65.52
2023-04-21T00:40:13.725Z,65.40
2023-04-21T00:42:42.478Z,65.25
2023-04-21T00:45:11.294Z,64.87
2023-04-21T00:47:39.750Z,65.44
2023-04-21T00:50:08.584Z,65.33
2023-04-21T00:52:41.043Z,65.60
2023-04-21T00:55:11.842Z,65.73
2023-04-21T00:57:40.535Z,65.53
2023-04-21T01:00:10.823Z,65.32
2023-04-21T01:02:41.660Z,65.43
2023-04-21T01:05:11.422Z,65.55
2023-04-21T01:07:41.243Z,65.61
2023-04-21T01:10:11.818Z,65.02
2023-04-21T01:12:46.886Z,65.08
2023-04-21T01:15:17.797Z,65.41
2023-04-21T01:17:46.323Z,65.11
2023-04-21T01:20:16.581Z,64.74
2023-04-21T01:22:47.510Z,65.00
2023-04-21T01:25:17.669Z,65.39
2023-04-21T01:27:46.213Z,65.03
2023-04-21T01:30:14.855Z,64.74
2023-04-21T01:32:43.381Z,64.99
2023-04-21T01:35:11.862Z,65.32
2023-04-21T01:37:40.762Z,65.22
2023-04-21T01:40:11.657Z,65.15
2023-04-21T01:42:42.834Z,65.19
2023-04-21T01:45:12.021Z,65.19
2023-04-21T01:47:40.817Z,64.92
2023-04-21T01:50:10.200Z,64.75
2023-04-21T01:52:38.641Z,64.88
2023-04-21T01:55:07.935Z,65.18
2023-04-21T01:57:37.703Z,65.11
2023-04-21T02:00:07.707Z,65.18
2023-04-21T02:02:43.473Z,65.00
2023-04-21T02:05:14.615Z,65.16
2023-04-21T02:07:43.151Z,65.14
2023-04-21T02:10:12.410Z,64.95
2023-04-21T02:12:42.276Z,65.39
2023-04-21T02:15:12.553Z,64.98
2023-04-21T02:17:42.960Z,65.10
2023-04-21T02:20:13.556Z,65.52
2023-04-21T02:22:41.962Z,65.05
2023-04-21T02:25:10.761Z,65.21
2023-04-21T02:27:41.973Z,65.67
2023-04-21T02:30:11.233Z,65.43
2023-04-21T02:32:39.997Z,65.65
2023-04-21T02:35:08.831Z,65.69
2023-04-21T02:37:37.345Z,65.73
2023-04-21T02:40:06.909Z,65.78
2023-04-21T02:42:35.545Z,66.38
2023-04-21T02:45:06.024Z,66.21
2023-04-21T02:47:34.469Z,66.10
2023-04-21T02:50:03.052Z,66.44
2023-04-21T02:52:31.544Z,66.23
2023-04-21T02:55:01.043Z,66.36
2023-04-21T02:57:29.444Z,66.39
2023-04-21T02:59:57.847Z,66.15
2023-04-21T03:02:28.032Z,66.70
2023-04-21T03:04:56.798Z,66.46
2023-04-21T03:07:25.189Z,66.64
2023-04-21T03:09:53.670Z,66.75
2023-04-21T03:12:22.620Z,67.50
2023-04-21T03:14:51.096Z,67.47
2023-04-21T03:17:19.537Z,67.96
2023-04-21T03:19:50.348Z,68.45
2023-04-21T03:22:18.757Z,68.79
2023-04-21T03:24:47.190Z,69.03
2023-04-21T03:27:15.910Z,68.59
2023-04-21T03:29:44.216Z,68.66
2023-04-21T03:32:12.799Z,68.33
2023-04-21T03:34:41.296Z,68.63
2023-04-21T03:37:11.987Z,68.88
2023-04-21T03:39:40.495Z,68.67
2023-04-21T03:42:09.119Z,68.98
2023-04-21T03:44:38.027Z,69.03
2023-04-21T03:47:06.998Z,68.88
2023-04-21T03:49:36.133Z,69.06
2023-04-21T03:52:04.974Z,69.55
2023-04-21T03:54:35.932Z,69.31
2023-04-21T03:57:04.334Z,69.76
2023-04-21T03:59:32.694Z,69.91
2023-04-21T04:02:02.126Z,69.38
2023-04-21T04:04:30.736Z,69.66
2023-04-21T04:06:59.497Z,69.91
2023-04-21T04:09:27.875Z,69.69
2023-04-21T04:11:57.820Z,69.66
2023-04-21T04:14:26.208Z,69.46
2023-04-21T04:16:54.559Z,69.51
2023-04-21T04:19:23.160Z,69.23
2023-04-21T04:21:51.560Z,69.77
2023-04-21T04:24:20.061Z,69.44
2023-04-21T04:26:48.430Z,69.68
2023-04-21T04:29:18.898Z,69.41
2023-04-21T04:31:47.604Z,69.59
2023-04-21T04:34:16.829Z,69.32
2023-04-21T04:36:45.266Z,68.89
2023-04-21T04:39:14.014Z,69.24
2023-04-21T04:41:42.500Z,69.22
2023-04-21T04:44:11.364Z,68.90
2023-04-21T04:46:41.358Z,69.28
2023-04-21T04:49:09.771Z,69.79
2023-04-21T04:51:38.331Z,70.03
2023-04-21T04:54:06.802Z,70.13
2023-04-21T04:56:35.164Z,70.07
2023-04-21T04:59:03.556Z,70.15
2023-04-21T05:01:31.990Z,70.66
2023-04-21T05:04:02.008Z,70.63
2023-04-21T05:06:30.757Z,70.79
2023-04-21T05:08:59.118Z,71.26
2023-04-21T05:11:27.464Z,71.13
2023-04-21T05:13:55.931Z,71.15
2023-04-21T05:16:25.358Z,71.34
2023-04-21T05:18:54.732Z,70.98
2023-04-21T05:21:28.459Z,71.20
2023-04-21T05:23:57.360Z,71.31
2023-04-21T05:26:25.925Z,71.21
2023-04-21T05:28:54.315Z,71.34
2023-04-21T05:31:22.718Z,71.24
2023-04-21T05:33:51.436Z,71.76
2023-04-21T05:36:20.574Z,71.67
2023-04-21T05:38:50.670Z,71.22
2023-04-21T05:41:19.169Z,71.29
2023-04-21T05:43:47.685Z,71.59
2023-04-21T05:46:16.219Z,71.31
2023-04-21T05:48:44.692Z,71.22
2023-04-21T05:51:15.627Z,71.48
2023-04-21T05:53:45.288Z,71.44
2023-04-21T05:56:15.326Z,71.31
2023-04-21T05:58:43.738Z,71.29
2023-04-21T06:01:13.087Z,71.50
2023-04-21T06:03:41.752Z,71.35
2023-04-21T06:06:11.676Z,71.14
2023-04-21T06:08:40.201Z,71.33
2023-04-21T06:11:08.637Z,70.76
2023-04-21T06:13:39.798Z,70.38
2023-04-21T06:16:09.601Z,70.81
2023-04-21T06:18:38.162Z,70.94
2023-04-21T06:21:07.254Z,70.51
2023-04-21T06:23:35.594Z,70.52
2023-04-21T06:26:05.575Z,69.83
2023-04-21T06:28:34.602Z,69.83
2023-04-21T06:31:07.975Z,70.14
2023-04-21T06:33:37.427Z,69.53
2023-04-21T06:36:06.568Z,69.95
2023-04-21T06:38:34.975Z,69.72
2023-04-21T06:41:04.802Z,69.50
2023-04-21T06:43:33.218Z,69.45
2023-04-21T06:46:01.573Z,69.17
2023-04-21T06:48:31.410Z,69.30
2023-04-21T06:51:00.741Z,69.09
2023-04-21T06:53:29.212Z,68.92
2023-04-21T06:55:57.647Z,68.92
2023-04-21T06:58:26.821Z,68.92
2023-04-21T07:00:55.308Z,68.26
2023-04-21T07:03:23.723Z,68.70
2023-04-21T07:05:53.675Z,68.65
2023-04-21T07:08:22.035Z,68.00
2023-04-21T07:10:50.518Z,68.10
2023-04-21T07:13:19.185Z,68.62
2023-04-21T07:15:47.874Z,68.42
2023-04-21T07:18:16.485Z,68.82
2023-04-21T07:20:44.941Z,68.69
2023-04-21T07:23:14.815Z,68.36
2023-04-21T07:25:43.270Z,68.60
2023-04-21T07:28:15.179Z,68.38
2023-04-21T07:30:43.700Z,68.36
2023-04-21T07:33:12.731Z,67.97
2023-04-21T07:35:41.222Z,67.79
2023-04-21T07:38:09.553Z,67.13
2023-04-21T07:40:39.419Z,67.57
2023-04-21T07:43:07.755Z,67.58
2023-04-21T07:45:36.239Z,67.85
2023-04-21T07:48:06.271Z,67.29
2023-04-21T07:50:35.820Z,67.41
2023-04-21T07:53:04.193Z,67.13
2023-04-21T07:55:32.598Z,66.92
2023-04-21T07:58:02.471Z,67.41
2023-04-21T08:00:30.926Z,67.52
2023-04-21T08:02:59.482Z,67.13
2023-04-21T08:05:31.098Z,67.06
2023-04-21T08:08:02.073Z,66.89
2023-04-21T08:10:30.566Z,66.78
2023-04-21T08:12:59.044Z,66.80
2023-04-21T08:15:28.872Z,66.77
2023-04-21T08:17:57.260Z,66.79
2023-04-21T08:20:25.713Z,66.64
2023-04-21T08:22:54.276Z,67.06
2023-04-21T08:25:22.832Z,67.00
2023-04-21T08:27:51.289Z,67.46
2023-04-21T08:30:19.777Z,67.93
2023-04-21T08:32:49.722Z,67.75
2023-04-21T08:35:18.177Z,67.39
2023-04-21T08:37:46.850Z,67.29
2023-04-21T08:40:15.362Z,66.91
2023-04-21T08:42:44.041Z,67.06
2023-04-21T08:45:13.001Z,66.20
2023-04-21T08:47:42.774Z,65.94
2023-04-21T08:50:15.959Z,65.74
2023-04-21T08:52:44.937Z,64.85
2023-04-21T08:55:14.786Z,64.13
2023-04-21T08:57:43.121Z,63.77
2023-04-21T09:00:12.416Z,63.73
2023-04-21T09:03:00.919Z,63.22
2023-04-21T09:05:34.305Z,63.32
2023-04-21T09:08:10.512Z,63.36
2023-04-21T09:10:46.549Z,63.17
2023-04-21T09:13:15.346Z,63.32
2023-04-21T09:15:45.049Z,63.29
2023-04-21T09:18:16.618Z,62.69
2023-04-21T09:20:48.212Z,62.49
2023-04-21T09:23:16.884Z,61.57
2023-04-21T09:25:46.776Z,61.38
2023-04-21T09:28:16.581Z,60.88
2023-04-21T09:30:45.253Z,60.08
2023-04-21T09:33:29.052Z,60.15
2023-04-21T09:36:04.568Z,60.28
2023-04-21T09:38:34.281Z,60.22
2023-04-21T09:41:02.680Z,60.13
2023-04-21T09:43:31.107Z,60.05
2023-04-21T09:46:01.937Z,60.15
2023-04-21T09:48:35.757Z,59.56
2023-04-21T09:53:40.842Z,57.83
2023-04-21T09:56:13.973Z,57.40
2023-04-21T09:58:47.917Z,56.55
2023-04-21T10:01:17.191Z,56.04
2023-04-21T10:03:47.181Z,55.86
2023-04-21T10:06:17.396Z,54.75
2023-04-21T10:08:46.497Z,53.72
2023-04-21T10:11:15.400Z,54.07
2023-04-21T10:13:44.308Z,53.70
2023-04-21T10:16:12.885Z,53.08
2023-04-21T10:18:45.330Z,53.93
2023-04-21T10:21:18.303Z,54.18
2023-04-21T10:23:49.682Z,53.91
2023-04-21T10:26:21.007Z,53.10
2023-04-21T10:28:57.635Z,52.89
2023-04-21T10:31:34.909Z,53.25
2023-04-21T10:34:23.590Z,54.45
2023-04-21T10:37:19.833Z,53.76
2023-04-21T10:39:56.090Z,53.08
2023-04-21T10:42:27.505Z,52.96
2023-04-21T10:45:04.189Z,52.05
2023-04-21T10:47:38.766Z,52.08
2023-04-21T10:50:25.887Z,51.24
2023-04-21T10:52:57.034Z,50.33
2023-04-21T10:55:30.267Z,50.14
2023-04-21T10:57:59.523Z,50.90
2023-04-21T11:00:27.955Z,50.15
2023-04-21T11:03:01.407Z,50.06
2023-04-21T11:05:36.501Z,49.89
2023-04-21T11:08:14.218Z,50.57
2023-04-21T11:10:57.548Z,51.21
2023-04-21T11:13:27.775Z,51.08
2023-04-21T11:16:08.325Z,51.23
2023-04-21T11:18:44.629Z,51.80
2023-04-21T11:21:18.357Z,51.06
2023-04-21T11:23:52.483Z,51.44
2023-04-21T11:26:31.988Z,50.92
2023-04-21T11:29:04.521Z,51.80
2023-04-21T11:31:33.262Z,50.35
2023-04-21T11:34:02.194Z,50.70
2023-04-21T11:36:31.049Z,50.09
2023-04-21T11:38:59.581Z,50.26
2023-04-21T11:41:29.471Z,51.00
2023-04-21T11:43:57.786Z,50.49
2023-04-21T11:46:27.333Z,50.86
2023-04-21T11:49:04.481Z,49.57
2023-04-21T11:51:36.813Z,49.79
2023-04-21T11:54:07.455Z,49.89
2023-04-21T11:56:41.558Z,49.38
2023-04-21T11:59:11.002Z,50.39
2023-04-21T12:01:45.348Z,50.86
2023-04-21T12:04:18.218Z,50.00
2023-04-21T12:06:47.171Z,49.80
2023-04-21T12:09:19.475Z,51.00
2023-04-21T12:11:51.969Z,50.80
2023-04-21T12:14:22.272Z,50.31
2023-04-21T12:16:51.778Z,50.55
2023-04-21T12:19:36.780Z,50.83
2023-04-21T12:22:09.658Z,50.72
2023-04-21T12:24:39.650Z,50.57
2023-04-21T12:27:09.934Z,50.63
2023-04-21T12:29:39.250Z,50.83
2023-04-21T12:32:08.096Z,50.53
2023-04-21T12:34:38.140Z,49.69
2023-04-21T12:37:06.770Z,49.40
2023-04-21T12:39:35.706Z,50.22
2023-04-21T12:42:04.137Z,50.04
2023-04-21T12:44:33.887Z,50.02
2023-04-21T12:47:03.772Z,50.26
2023-04-21T12:49:32.452Z,49.63
2023-04-21T12:52:01.352Z,50.16
2023-04-21T12:54:29.818Z,50.61
2023-04-21T12:56:59.282Z,50.33
2023-04-21T12:59:27.862Z,49.97
2023-04-21T13:01:57.885Z,50.00
2023-04-21T13:04:26.568Z,50.96
2023-04-21T13:06:55.433Z,50.73
2023-04-21T13:09:23.936Z,50.50
2023-04-21T13:11:52.884Z,50.51
2023-04-21T13:14:21.466Z,51.04
2023-04-21T13:16:50.035Z,51.13
2023-04-21T13:19:19.953Z,49.37
2023-04-21T13:21:50.093Z,48.89
2023-04-21T13:24:19.348Z,49.18
2023-04-21T13:26:47.748Z,49.50
2023-04-21T13:29:16.276Z,49.56
2023-04-21T13:31:44.923Z,49.92
2023-04-21T13:34:13.321Z,50.75
2023-04-21T13:36:43.738Z,50.17
2023-04-21T13:39:12.575Z,49.82
2023-04-21T13:41:40.901Z,49.55
2023-04-21T13:44:09.330Z,49.64
2023-04-21T13:46:37.863Z,50.33
2023-04-21T13:49:06.860Z,50.26
2023-04-21T13:51:35.848Z,50.63
2023-04-21T13:54:05.920Z,50.48
2023-04-21T13:56:34.513Z,50.11
2023-04-21T13:59:02.917Z,50.05
2023-04-21T14:01:31.383Z,50.24
2023-04-21T14:03:59.958Z,50.99
2023-04-21T14:06:28.540Z,50.80
2023-04-21T14:08:56.996Z,51.19
2023-04-21T14:11:26.864Z,51.10
2023-04-21T14:14:08.469Z,50.03
2023-04-21T14:16:37.861Z,49.59
2023-04-21T14:19:06.633Z,49.54
2023-04-21T14:21:35.352Z,49.33
2023-04-21T14:24:03.793Z,49.62
2023-04-21T14:26:33.664Z,50.39
2023-04-21T14:29:02.223Z,50.71
2023-04-21T14:31:32.029Z,51.04
2023-04-21T14:34:00.671Z,51.58
2023-04-21T14:36:29.207Z,50.97
2023-04-21T14:38:57.631Z,51.56
2023-04-21T14:41:26.132Z,51.80
2023-04-21T14:43:57.864Z,51.05
2023-04-21T14:46:27.047Z,50.95
2023-04-21T14:48:55.550Z,50.90
2023-04-21T14:51:23.976Z,51.11
2023-04-21T14:53:52.715Z,51.83
2023-04-21T14:56:21.245Z,51.61
2023-04-21T14:58:49.759Z,51.09
2023-04-21T15:01:19.731Z,51.43
2023-04-21T15:03:48.541Z,51.54
2023-04-21T15:06:17.386Z,51.28
2023-04-21T15:08:45.857Z,51.58
2023-04-21T15:11:14.357Z,51.48
2023-04-21T15:13:42.777Z,52.07
2023-04-21T15:16:11.216Z,52.45
2023-04-21T15:18:41.205Z,52.09
2023-04-21T15:21:09.676Z,51.81
2023-04-21T15:23:38.208Z,51.43
2023-04-21T15:26:06.857Z,50.97
2023-04-21T15:28:36.132Z,50.97
2023-04-21T15:31:04.766Z,49.96
2023-04-21T15:33:33.298Z,50.06
2023-04-21T15:36:03.206Z,50.21
2023-04-21T15:38:31.687Z,50.87
2023-04-21T15:41:01.274Z,50.70
2023-04-21T15:43:30.510Z,50.25
2023-04-21T15:45:58.991Z,50.45
2023-04-21T15:48:27.574Z,50.73
2023-04-21T15:50:56.112Z,51.43
2023-04-21T15:53:26.123Z,51.91
2023-04-21T15:55:54.555Z,51.56
2023-04-21T15:58:23.000Z,51.99
2023-04-21T16:00:51.888Z,52.42
2023-04-21T16:03:20.596Z,52.72
2023-04-21T16:05:49.268Z,53.34
2023-04-21T16:08:17.765Z,53.50
2023-04-21T16:10:47.657Z,53.82
2023-04-21T16:13:16.271Z,54.10
2023-04-21T16:15:44.713Z,54.51
2023-04-21T16:18:13.223Z,54.52
2023-04-21T16:20:42.857Z,54.65
2023-04-21T16:23:11.280Z,54.78
2023-04-21T16:25:39.845Z,55.14
2023-04-21T16:28:09.920Z,55.19
2023-04-21T16:30:43.664Z,55.47
2023-04-21T16:33:13.283Z,56.09
2023-04-21T16:35:41.845Z,56.28
2023-04-21T16:38:10.831Z,56.71
2023-04-21T16:40:39.257Z,56.74
2023-04-21T16:43:09.170Z,56.83
2023-04-21T16:45:37.546Z,57.10
2023-04-21T16:48:06.227Z,57.15
2023-04-21T16:50:34.897Z,57.26
2023-04-21T16:53:04.348Z,57.32
2023-04-21T16:55:32.752Z,57.84
2023-04-21T16:58:01.253Z,58.16
2023-04-21T17:00:31.413Z,58.22
2023-04-21T17:02:59.879Z,58.05
2023-04-21T17:05:28.621Z,58.34
2023-04-21T17:07:57.485Z,58.40
2023-04-21T17:10:27.213Z,58.27
2023-04-21T17:12:55.663Z,58.80
2023-04-21T17:15:24.074Z,59.12
2023-04-21T17:17:54.183Z,59.22
2023-04-21T17:20:22.904Z,59.50
2023-04-21T17:22:51.318Z,59.72
2023-04-21T17:25:19.742Z,60.14
2023-04-21T17:27:48.222Z,60.43
2023-04-21T17:30:16.810Z,60.55
2023-04-21T17:32:45.294Z,60.45
2023-04-21T17:35:15.149Z,60.50
2023-04-21T17:37:43.646Z,60.68
2023-04-21T17:40:12.464Z,60.85
2023-04-21T17:42:41.882Z,60.92
2023-04-21T17:45:10.748Z,60.92
2023-04-21T17:47:39.364Z,61.01
2023-04-21T17:50:11.834Z,61.27
2023-04-21T17:52:42.023Z,61.24
2023-04-21T17:55:10.904Z,61.43
2023-04-21T17:57:39.319Z,61.64
2023-04-21T18:00:10.794Z,61.52
2023-04-21T18:02:39.297Z,61.46
2023-04-21T18:05:07.860Z,61.16
2023-04-21T18:07:36.547Z,61.38
2023-04-21T18:10:07.333Z,61.56
2023-04-21T18:12:35.930Z,61.85
2023-04-21T18:15:05.271Z,62.04
2023-04-21T18:17:34.950Z,62.22
2023-04-21T18:20:03.325Z,62.33
2023-04-21T18:22:32.012Z,62.27
2023-04-21T18:25:00.430Z,62.25
2023-04-21T18:27:30.279Z,62.17
2023-04-21T18:29:58.696Z,62.27
2023-04-21T18:32:27.210Z,62.15
2023-04-21T18:34:55.666Z,62.18
2023-04-21T18:37:24.141Z,62.04
2023-04-21T18:39:52.694Z,61.85
2023-04-21T18:42:21.157Z,61.81
2023-04-21T18:44:51.203Z,61.86
2023-04-21T18:47:20.636Z,61.67
2023-04-21T18:49:49.185Z,61.58
2023-04-21T18:52:17.573Z,61.47
2023-04-21T18:54:45.972Z,61.38
2023-04-21T18:57:14.418Z,61.67
2023-04-21T18:59:42.758Z,61.68
2023-04-21T19:02:16.285Z,61.44
2023-04-21T19:04:45.596Z,61.48
2023-04-21T19:07:15.758Z,61.43
2023-04-21T19:09:46.185Z,61.63
2023-04-21T19:12:14.655Z,61.64
2023-04-21T19:14:47.537Z,61.94
2023-04-21T19:17:17.715Z,61.66
2023-04-21T19:19:46.222Z,61.61
2023-04-21T19:22:14.604Z,61.43
2023-04-21T19:24:43.059Z,61.34
2023-04-21T19:27:11.462Z,61.15
2023-04-21T19:29:40.099Z,61.14
2023-04-21T19:32:08.522Z,61.28
2023-04-21T19:34:38.974Z,60.76
2023-04-21T19:37:08.040Z,60.72
2023-04-21T19:39:36.332Z,60.70
2023-04-21T19:42:04.982Z,60.72
2023-04-21T19:44:33.445Z,60.64
2023-04-21T19:47:01.935Z,60.41
2023-04-21T19:49:30.731Z,60.42
2023-04-21T19:52:00.985Z,60.12
2023-04-21T19:54:29.351Z,59.88
2023-04-21T19:56:57.824Z,59.86
2023-04-21T19:59:26.323Z,59.98
2023-04-21T20:01:54.896Z,59.90
2023-04-21T20:04:23.604Z,59.94
2023-04-21T20:06:52.256Z,59.88
2023-04-21T20:09:22.081Z,59.89
2023-04-21T20:11:50.378Z,59.94
2023-04-21T20:14:19.346Z,59.89
2023-04-21T20:16:47.806Z,59.98
2023-04-21T20:19:17.403Z,59.86
2023-04-21T20:21:46.022Z,60.02
2023-04-21T20:24:14.514Z,60.08
2023-04-21T20:26:45.478Z,60.09
2023-04-21T20:29:13.948Z,60.50
2023-04-21T20:31:42.431Z,60.58
2023-04-21T20:34:10.842Z,60.96
2023-04-21T20:36:39.655Z,61.31
2023-04-21T20:39:08.077Z,61.35
2023-04-21T20:41:36.431Z,61.57
2023-04-21T20:44:06.579Z,61.40
2023-04-21T20:46:35.110Z,61.89
2023-04-21T20:49:03.862Z,62.43
2023-04-21T20:51:32.731Z,62.16
2023-04-21T20:54:01.398Z,62.20
2023-04-21T20:56:29.839Z,62.87
2023-04-21T20:58:58.279Z,63.11
2023-04-21T21:01:30.529Z,63.27
2023-04-21T21:04:01.377Z,63.13
2023-04-21T21:06:30.280Z,63.35
2023-04-21T21:08:58.587Z,63.43
2023-04-21T21:11:27.122Z,64.02
2023-04-21T21:13:55.510Z,63.87
2023-04-21T21:16:24.027Z,63.99
2023-04-21T21:18:54.153Z,64.32
2023-04-21T21:21:23.006Z,64.27
2023-04-21T21:23:52.685Z,64.51
2023-04-21T21:26:21.124Z,64.52
2023-04-21T21:28:49.497Z,64.99
2023-04-21T21:31:17.984Z,64.97
2023-04-21T21:33:46.416Z,64.95
2023-04-21T21:36:16.200Z,64.68
2023-04-21T21:38:44.745Z,64.65
2023-04-21T21:41:14.233Z,65.00
2023-04-21T21:43:42.721Z,64.91
2023-04-21T21:46:11.246Z,65.74
2023-04-21T21:48:39.650Z,65.70
2023-04-21T21:51:08.024Z,65.19
2023-04-21T21:53:37.858Z,65.29
2023-04-21T21:56:06.868Z,65.17
2023-04-21T21:58:35.228Z,65.88
2023-04-21T22:01:03.665Z,65.59
2023-04-21T22:03:32.606Z,65.44
2023-04-21T22:06:01.276Z,66.18
2023-04-21T22:08:29.817Z,66.17
2023-04-21T22:10:59.711Z,65.92
2023-04-21T22:13:28.363Z,66.36
2023-04-21T22:15:56.843Z,66.35
2023-04-21T22:18:25.347Z,66.68
2023-04-21T22:20:53.716Z,66.68
2023-04-21T22:23:22.084Z,66.30
2023-04-21T22:25:50.583Z,66.45
2023-04-21T22:28:20.385Z,66.87
2023-04-21T22:30:48.900Z,66.65
2023-04-21T22:33:18.306Z,67.10
2023-04-21T22:35:46.787Z,67.31
2023-04-21T22:38:15.192Z,67.50
2023-04-21T22:40:43.664Z,67.31
2023-04-21T22:43:12.075Z,67.56
2023-04-21T22:45:43.042Z,67.48
2023-04-21T22:48:11.524Z,67.30
2023-04-21T22:50:40.062Z,67.57
2023-04-21T22:53:08.584Z,67.61
2023-04-21T22:55:37.144Z,67.89
2023-04-21T22:58:05.568Z,67.66
2023-04-21T23:00:34.102Z,68.06
2023-04-21T23:03:04.173Z,67.65
2023-04-21T23:05:32.870Z,67.78
2023-04-21T23:08:01.292Z,67.62
2023-04-21T23:10:30.338Z,67.58
2023-04-21T23:12:59.836Z,67.93
2023-04-21T23:15:29.265Z,67.89
2023-04-21T23:17:57.664Z,67.62
2023-04-21T23:20:27.579Z,67.92
2023-04-21T23:22:56.056Z,67.92
2023-04-21T23:25:24.391Z,68.21
2023-04-21T23:27:52.761Z,68.04
2023-04-21T23:30:21.344Z,67.90
2023-04-21T23:32:50.541Z,68.10
2023-04-21T23:35:19.208Z,68.54
2023-04-21T23:37:48.940Z,68.46
2023-04-21T23:40:17.512Z,68.84
2023-04-21T23:42:47.290Z,68.91
2023-04-21T23:45:15.964Z,68.94
2023-04-21T23:47:45.890Z,68.60
2023-04-21T23:50:14.310Z,68.29
2023-04-21T23:52:44.265Z,68.29
2023-04-21T23:55:14.405Z,67.97
2023-04-21T23:57:44.665Z,67.99
